createdAt,value
2018-05-16T00:01:24.017Z,100072.97
2018-05-16T00:03:51.550Z,100066.92
2018-05-16T00:06:19.044Z,100068.75
2018-05-16T00:08:46.549Z,100073.27
2018-05-16T00:11:14.041Z,100072.45
2018-05-16T00:13:41.848Z,100074.22
2018-05-16T00:16:09.336Z,100074.19
2018-05-16T00:18:36.859Z,100076.64
2018-05-16T00:21:04.377Z,100069.12
2018-05-16T00:23:31.861Z,100065.11
2018-05-16T00:25:59.496Z,100071.25
2018-05-16T00:28:26.981Z,100069.34
2018-05-16T00:30:54.464Z,100066.92
2018-05-16T00:33:21.971Z,100073.71
2018-05-16T00:35:49.457Z,100080.14
2018-05-16T00:38:17.001Z,100086.97
2018-05-16T00:40:44.490Z,100098.42
2018-05-16T00:43:11.973Z,100103.23
2018-05-16T00:45:39.507Z,100101.61
2018-05-16T00:48:07.004Z,100109.05
2018-05-16T00:50:34.709Z,100106.53
2018-05-16T00:53:02.207Z,100106.14
2018-05-16T00:55:29.686Z,100116.03
2018-05-16T00:57:57.214Z,100112.75
2018-05-16T01:00:24.693Z,100119.48
2018-05-16T01:02:52.216Z,100114.30
2018-05-16T01:05:19.702Z,100103.08
2018-05-16T01:07:47.186Z,100100.32
2018-05-16T01:10:14.696Z,100094.44
2018-05-16T01:12:42.180Z,100094.65
2018-05-16T01:15:09.701Z,100101.63
2018-05-16T01:17:37.220Z,100103.94
2018-05-16T01:20:04.729Z,100111.77
2018-05-16T01:22:32.253Z,100115.47
2018-05-16T01:24:59.799Z,100121.75
2018-05-16T01:27:27.325Z,100110.97
2018-05-16T01:29:54.836Z,100132.41
2018-05-16T01:32:22.333Z,100143.99
2018-05-16T01:34:49.873Z,100161.11
2018-05-16T01:37:17.373Z,100162.28
2018-05-16T01:39:45.100Z,100157.86
2018-05-16T01:42:12.590Z,100160.04
2018-05-16T01:44:40.160Z,100148.66
2018-05-16T01:47:07.689Z,100157.53
2018-05-16T01:49:35.173Z,100149.36
2018-05-16T01:52:02.690Z,100146.20
2018-05-16T01:54:30.174Z,100144.41
2018-05-16T01:56:57.899Z,100115.91
2018-05-16T01:59:25.381Z,100105.83
2018-05-16T02:01:52.869Z,100098.24
2018-05-16T02:04:20.397Z,100103.17
2018-05-16T02:06:47.877Z,100109.11
2018-05-16T02:09:15.764Z,100121.47
2018-05-16T02:11:43.248Z,100122.02
2018-05-16T02:14:10.729Z,100111.02
2018-05-16T02:16:38.242Z,100113.38
2018-05-16T02:19:05.732Z,100126.38
2018-05-16T02:21:33.517Z,100133.98
2018-05-16T02:24:01.003Z,100135.64
2018-05-16T02:26:28.493Z,100138.33
2018-05-16T02:28:56.057Z,100142.59
2018-05-16T02:31:23.545Z,100140.13
2018-05-16T02:33:51.289Z,100127.76
2018-05-16T02:36:18.770Z,100126.25
2018-05-16T02:38:46.248Z,100124.35
2018-05-16T02:41:13.760Z,100121.87
2018-05-16T02:43:41.257Z,100108.12
2018-05-16T02:46:08.913Z,100110.04
2018-05-16T02:48:36.392Z,100106.84
2018-05-16T02:51:03.899Z,100103.09
2018-05-16T02:53:31.418Z,100097.17
2018-05-16T02:55:58.940Z,100089.72
2018-05-16T02:58:26.697Z,100079.41
2018-05-16T03:00:54.185Z,100081.21
2018-05-16T03:03:21.669Z,100076.94
2018-05-16T03:05:49.173Z,100080.66
2018-05-16T03:08:16.661Z,100077.37
2018-05-16T03:10:44.194Z,100081.70
2018-05-16T03:13:11.686Z,100068.89
2018-05-16T03:15:39.165Z,100064.55
2018-05-16T03:18:06.677Z,100055.34
2018-05-16T03:20:34.170Z,100050.20
2018-05-16T03:23:02.114Z,100051.58
2018-05-16T03:25:29.601Z,100050.09
2018-05-16T03:27:57.092Z,100044.98
2018-05-16T03:30:24.609Z,100043.75
2018-05-16T03:32:52.097Z,100042.62
2018-05-16T03:35:20.077Z,100055.68
2018-05-16T03:37:47.567Z,100052.29
2018-05-16T03:40:15.070Z,100057.84
2018-05-16T03:42:42.593Z,100056.08
2018-05-16T03:45:10.084Z,100058.59
2018-05-16T03:47:37.743Z,100055.69
2018-05-16T03:50:05.328Z,100054.55
2018-05-16T03:52:32.825Z,100053.03
2018-05-16T03:55:00.346Z,100046.26
2018-05-16T03:57:39.626Z,100053.42
2018-05-16T04:00:19.189Z,100057.33
2018-05-16T04:02:58.873Z,100052.33
2018-05-16T04:05:26.384Z,100048.35
2018-05-16T04:07:53.882Z,100045.73
2018-05-16T04:10:21.370Z,100052.47
2018-05-16T04:12:48.888Z,100052.88
2018-05-16T04:15:16.393Z,100054.47
2018-05-16T04:17:43.876Z,100054.55
2018-05-16T04:20:11.433Z,100057.44
2018-05-16T04:22:38.923Z,100053.78
2018-05-16T04:25:06.413Z,100065.23
2018-05-16T04:27:33.960Z,100056.94
2018-05-16T04:30:01.457Z,100057.39
2018-05-16T04:32:28.941Z,100058.97
2018-05-16T04:34:56.477Z,100062.25
2018-05-16T04:37:23.977Z,100067.54
2018-05-16T04:39:51.460Z,100071.20
2018-05-16T04:42:18.981Z,100073.65
2018-05-16T04:44:46.465Z,100065.23
2018-05-16T04:47:13.953Z,100065.92
2018-05-16T04:49:41.674Z,100063.97
2018-05-16T04:52:09.185Z,100071.20
2018-05-16T04:54:36.697Z,100069.04
2018-05-16T04:57:04.363Z,100069.23
2018-05-16T04:59:31.853Z,100069.95
2018-05-16T05:01:59.337Z,100067.09
2018-05-16T05:04:27.085Z,100067.23
2018-05-16T05:06:54.561Z,100061.78
2018-05-16T05:09:22.050Z,100067.55
2018-05-16T05:11:49.589Z,100070.68
2018-05-16T05:14:17.089Z,100077.95
2018-05-16T05:16:44.569Z,100077.91
2018-05-16T05:19:12.090Z,100076.55
2018-05-16T05:21:39.599Z,100076.46
2018-05-16T05:24:07.147Z,100072.66
2018-05-16T05:26:34.819Z,100068.63
2018-05-16T05:29:02.315Z,100063.94
2018-05-16T05:31:29.801Z,100064.37
2018-05-16T05:33:57.305Z,100069.89
2018-05-16T05:36:24.798Z,100065.34
2018-05-16T05:38:52.365Z,100072.60
2018-05-16T05:41:19.837Z,100082.56
2018-05-16T05:43:47.338Z,100079.95
2018-05-16T05:46:14.845Z,100086.67
2018-05-16T05:48:42.346Z,100076.31
2018-05-16T05:51:10.041Z,100088.02
2018-05-16T05:53:37.526Z,100084.14
2018-05-16T05:56:05.030Z,100080.97
2018-05-16T05:58:32.543Z,100089.89
2018-05-16T06:01:00.046Z,100094.33
2018-05-16T06:03:27.611Z,100087.83
2018-05-16T06:05:55.093Z,100087.44
2018-05-16T06:08:22.593Z,100084.33
2018-05-16T06:10:50.150Z,100088.45
2018-05-16T06:13:17.623Z,100094.06
2018-05-16T06:15:45.158Z,100094.72
2018-05-16T06:18:12.649Z,100096.05
2018-05-16T06:20:40.132Z,100104.81
2018-05-16T06:23:07.637Z,100103.00
2018-05-16T06:25:35.124Z,100099.77
2018-05-16T06:28:02.976Z,100108.72
2018-05-16T06:30:30.461Z,100118.30
2018-05-16T06:32:57.954Z,100116.94
2018-05-16T06:35:25.465Z,100123.34
2018-05-16T06:37:52.956Z,100115.86
2018-05-16T06:40:20.688Z,100121.39
2018-05-16T06:42:48.169Z,100117.25
2018-05-16T06:45:15.664Z,100115.25
2018-05-16T06:47:43.172Z,100125.88
2018-05-16T06:50:10.657Z,100127.54
2018-05-16T06:52:38.180Z,100131.69
2018-05-16T06:55:05.660Z,100136.61
2018-05-16T06:57:33.153Z,100140.68
2018-05-16T07:00:00.662Z,100143.33
2018-05-16T07:02:28.149Z,100138.34
2018-05-16T07:04:55.878Z,100139.93
2018-05-16T07:07:23.366Z,100136.57
2018-05-16T07:09:50.873Z,100141.94
2018-05-16T07:12:18.404Z,100149.09
2018-05-16T07:14:45.901Z,100154.23
2018-05-16T07:17:13.517Z,100153.11
2018-05-16T07:19:41.010Z,100148.20
2018-05-16T07:22:08.501Z,100152.91
2018-05-16T07:24:36.010Z,100149.40
2018-05-16T07:27:03.497Z,100154.16
2018-05-16T07:29:31.173Z,100153.53
2018-05-16T07:31:58.657Z,100156.92
2018-05-16T07:34:26.137Z,100158.40
2018-05-16T07:36:53.640Z,100158.58
2018-05-16T07:39:21.117Z,100159.63
2018-05-16T07:41:48.678Z,100159.31
2018-05-16T07:44:16.182Z,100154.80
2018-05-16T07:46:43.677Z,100153.47
2018-05-16T07:49:11.218Z,100163.98
2018-05-16T07:51:38.708Z,100166.88
2018-05-16T07:54:06.270Z,100160.75
2018-05-16T07:56:33.753Z,100157.02
2018-05-16T07:59:01.243Z,100158.50
2018-05-16T08:01:28.761Z,100156.68
2018-05-16T08:03:56.248Z,100155.65
2018-05-16T08:06:23.769Z,100153.20
2018-05-16T08:08:51.249Z,100155.09
2018-05-16T08:11:18.729Z,100152.37
2018-05-16T08:13:46.240Z,100155.70
2018-05-16T08:16:13.734Z,100148.92
2018-05-16T08:18:41.393Z,100142.16
2018-05-16T08:21:08.868Z,100159.27
2018-05-16T08:23:36.357Z,100156.42
2018-05-16T08:26:03.867Z,100156.72
2018-05-16T08:28:31.356Z,100165.29
2018-05-16T08:30:58.868Z,100162.62
2018-05-16T08:33:26.366Z,100165.23
2018-05-16T08:35:53.865Z,100162.05
2018-05-16T08:38:21.386Z,100159.38
2018-05-16T08:40:48.877Z,100173.94
2018-05-16T08:43:16.649Z,100171.38
2018-05-16T08:45:44.130Z,100183.11
2018-05-16T08:48:11.621Z,100186.41
2018-05-16T08:50:39.129Z,100168.92
2018-05-16T08:53:06.620Z,100167.33
2018-05-16T08:55:34.353Z,100178.54
2018-05-16T08:58:01.844Z,100177.27
2018-05-16T09:00:29.342Z,100183.84
2018-05-16T09:02:56.861Z,100181.80
2018-05-16T09:05:24.360Z,100192.23
2018-05-16T09:07:52.134Z,100189.11
2018-05-16T09:10:19.640Z,100185.06
2018-05-16T09:12:47.122Z,100187.22
2018-05-16T09:15:14.633Z,100188.47
2018-05-16T09:17:42.122Z,100185.63
2018-05-16T09:20:09.891Z,100195.59
2018-05-16T09:22:37.381Z,100202.27
2018-05-16T09:25:04.916Z,100201.23
2018-05-16T09:27:32.403Z,100199.05
2018-05-16T09:29:59.889Z,100204.25
2018-05-16T09:32:27.637Z,100199.48
2018-05-16T09:34:55.121Z,100209.73
2018-05-16T09:37:22.685Z,100205.70
2018-05-16T09:39:50.137Z,100203.09
2018-05-16T09:42:17.625Z,100206.62
2018-05-16T09:44:45.289Z,100208.24
2018-05-16T09:47:12.781Z,100205.73
2018-05-16T09:49:40.273Z,100212.50
2018-05-16T09:52:07.784Z,100201.74
2018-05-16T09:54:35.269Z,100202.64
2018-05-16T09:57:02.800Z,100196.81
2018-05-16T09:59:30.277Z,100206.47
2018-05-16T10:01:57.753Z,100201.50
2018-05-16T10:04:25.277Z,100211.34
2018-05-16T10:06:52.774Z,100207.05
2018-05-16T10:09:20.449Z,100220.69
2018-05-16T10:11:47.941Z,100210.54
2018-05-16T10:14:15.433Z,100207.16
2018-05-16T10:16:42.959Z,100219.49
2018-05-16T10:19:10.437Z,100224.35
2018-05-16T10:21:37.949Z,100219.17
2018-05-16T10:24:05.449Z,100222.44
2018-05-16T10:26:32.945Z,100223.02
2018-05-16T10:29:00.454Z,100224.28
2018-05-16T10:31:27.945Z,100222.48
2018-05-16T10:33:55.609Z,100215.47
2018-05-16T10:36:23.085Z,100233.31
2018-05-16T10:38:50.573Z,100229.77
2018-05-16T10:41:18.155Z,100218.33
2018-05-16T10:43:45.604Z,100217.30
2018-05-16T10:46:13.470Z,100206.89
2018-05-16T10:48:40.952Z,100207.56
2018-05-16T10:51:08.447Z,100207.50
2018-05-16T10:53:35.965Z,100207.50
2018-05-16T10:56:03.457Z,100207.21
2018-05-16T10:58:31.117Z,100200.83
2018-05-16T11:00:58.602Z,100208.38
2018-05-16T11:03:26.106Z,100211.80
2018-05-16T11:05:53.628Z,100210.39
2018-05-16T11:08:21.120Z,100209.40
2018-05-16T11:10:48.635Z,100206.67
2018-05-16T11:13:16.133Z,100207.34
2018-05-16T11:15:43.633Z,100213.13
2018-05-16T11:18:11.138Z,100203.73
2018-05-16T11:20:38.683Z,100207.17
2018-05-16T11:23:06.205Z,100211.20
2018-05-16T11:25:33.709Z,100207.28
2018-05-16T11:28:01.201Z,100209.07
2018-05-16T11:30:28.721Z,100209.16
2018-05-16T11:32:56.221Z,100205.42
2018-05-16T11:35:23.881Z,100203.64
2018-05-16T11:37:51.381Z,100199.41
2018-05-16T11:40:18.890Z,100201.73
2018-05-16T11:42:46.415Z,100200.97
2018-05-16T11:45:13.901Z,100195.80
2018-05-16T11:47:41.657Z,100201.74
2018-05-16T11:50:09.149Z,100196.14
2018-05-16T11:52:36.629Z,100196.37
2018-05-16T11:55:04.142Z,100194.16
2018-05-16T11:57:31.633Z,100194.30
2018-05-16T11:59:59.161Z,100199.98
2018-05-16T12:02:26.649Z,100192.41
2018-05-16T12:04:54.133Z,100195.78
2018-05-16T12:07:21.654Z,100201.95
2018-05-16T12:09:49.149Z,100198.39
2018-05-16T12:12:17.164Z,100195.53
2018-05-16T12:14:44.685Z,100192.15
2018-05-16T12:17:12.185Z,100201.69
2018-05-16T12:19:39.694Z,100190.42
2018-05-16T12:22:07.181Z,100191.98
2018-05-16T12:24:34.831Z,100184.50
2018-05-16T12:27:02.324Z,100188.89
2018-05-16T12:29:29.813Z,100187.47
2018-05-16T12:31:57.349Z,100188.70
2018-05-16T12:34:24.837Z,100188.53
2018-05-16T12:36:52.469Z,100182.39
2018-05-16T12:39:19.949Z,100173.69
2018-05-16T12:41:47.458Z,100174.78
2018-05-16T12:44:14.973Z,100168.94
2018-05-16T12:46:42.477Z,100170.09
2018-05-16T12:49:10.333Z,100167.20
2018-05-16T12:51:37.813Z,100168.97
2018-05-16T12:54:05.305Z,100165.64
2018-05-16T12:56:32.809Z,100173.19
2018-05-16T12:59:00.284Z,100179.20
2018-05-16T13:01:28.007Z,100175.58
2018-05-16T13:03:55.689Z,100172.37
2018-05-16T13:06:23.182Z,100181.66
2018-05-16T13:08:50.695Z,100177.97
2018-05-16T13:11:18.177Z,100175.61
2018-05-16T13:13:45.705Z,100168.93
2018-05-16T13:16:13.217Z,100170.41
2018-05-16T13:18:42.617Z,100174.31
2018-05-16T13:21:10.141Z,100162.51
2018-05-16T13:23:37.621Z,100164.70
2018-05-16T13:26:05.572Z,100166.51
2018-05-16T13:28:33.076Z,100159.34
2018-05-16T13:31:00.570Z,100166.69
2018-05-16T13:33:28.105Z,100174.49
2018-05-16T13:35:55.589Z,100169.83
2018-05-16T13:38:23.426Z,100183.25
2018-05-16T13:40:50.914Z,100172.00
2018-05-16T13:43:18.418Z,100171.88
2018-05-16T13:45:45.921Z,100170.09
2018-05-16T13:48:13.431Z,100169.63
2018-05-16T13:50:40.973Z,100163.72
2018-05-16T13:53:08.453Z,100166.16
2018-05-16T13:55:35.952Z,100164.21
2018-05-16T13:58:03.461Z,100162.54
2018-05-16T14:00:30.963Z,100164.13
2018-05-16T14:02:58.669Z,100166.84
2018-05-16T14:05:26.157Z,100163.39
2018-05-16T14:07:53.637Z,100163.61
2018-05-16T14:10:21.149Z,100165.50
2018-05-16T14:12:48.633Z,100170.48
2018-05-16T14:15:16.612Z,100169.58
2018-05-16T14:17:44.021Z,100177.71
2018-05-16T14:20:11.551Z,100183.37
2018-05-16T14:22:39.098Z,100177.11
2018-05-16T14:25:06.592Z,100177.48
2018-05-16T14:27:34.258Z,100183.89
2018-05-16T14:30:01.750Z,100183.92
2018-05-16T14:32:29.233Z,100188.14
2018-05-16T14:34:56.747Z,100191.35
2018-05-16T14:37:24.229Z,100189.63
2018-05-16T14:39:52.113Z,100188.73
2018-05-16T14:42:19.637Z,100184.83
2018-05-16T14:44:47.117Z,100184.95
2018-05-16T14:47:14.625Z,100190.98
2018-05-16T14:49:42.126Z,100197.41
2018-05-16T14:52:09.649Z,100185.70
2018-05-16T14:54:38.005Z,100192.16
2018-05-16T14:57:05.497Z,100197.11
2018-05-16T14:59:33.005Z,100186.09
2018-05-16T15:02:00.497Z,100186.19
2018-05-16T15:04:28.166Z,100189.32
2018-05-16T15:06:55.738Z,100186.66
2018-05-16T15:09:23.229Z,100190.92
2018-05-16T15:11:50.744Z,100181.99
2018-05-16T15:14:18.256Z,100187.61
2018-05-16T15:16:46.224Z,100189.47
2018-05-16T15:19:13.713Z,100190.36
2018-05-16T15:21:41.214Z,100192.20
2018-05-16T15:24:08.724Z,100195.71
2018-05-16T15:26:36.216Z,100193.91
2018-05-16T15:29:04.074Z,100201.62
2018-05-16T15:31:31.571Z,100204.73
2018-05-16T15:33:59.069Z,100202.84
2018-05-16T15:36:26.585Z,100201.02
2018-05-16T15:38:54.090Z,100205.00
2018-05-16T15:41:21.612Z,100198.43
2018-05-16T15:43:49.101Z,100200.38
2018-05-16T15:46:16.581Z,100200.50
2018-05-16T15:48:44.156Z,100189.52
2018-05-16T15:51:11.644Z,100192.82
2018-05-16T15:53:39.606Z,100184.23
2018-05-16T15:56:07.105Z,100191.60
2018-05-16T15:58:34.601Z,100186.91
2018-05-16T16:01:02.109Z,100185.12
2018-05-16T16:03:29.605Z,100184.27
2018-05-16T16:05:57.249Z,100192.45
2018-05-16T16:08:24.757Z,100185.13
2018-05-16T16:10:52.305Z,100186.88
2018-05-16T16:13:19.813Z,100179.03
2018-05-16T16:15:47.308Z,100177.83
2018-05-16T16:18:15.316Z,100172.05
2018-05-16T16:20:42.805Z,100176.13
2018-05-16T16:23:10.306Z,100173.31
2018-05-16T16:25:37.821Z,100170.16
2018-05-16T16:28:05.301Z,100178.48
2018-05-16T16:30:32.813Z,100166.81
2018-05-16T16:33:00.733Z,100171.45
2018-05-16T16:35:28.221Z,100172.22
2018-05-16T16:37:55.748Z,100170.91
2018-05-16T16:40:23.237Z,100177.78
2018-05-16T16:42:50.921Z,100178.05
2018-05-16T16:45:18.421Z,100177.73
2018-05-16T16:47:45.912Z,100182.65
2018-05-16T16:50:13.472Z,100184.58
2018-05-16T16:52:40.937Z,100185.53
2018-05-16T16:55:08.460Z,100188.66
2018-05-16T16:57:35.969Z,100176.75
2018-05-16T17:00:03.478Z,100182.83
2018-05-16T17:02:30.989Z,100183.84
2018-05-16T17:04:58.489Z,100187.88
2018-05-16T17:07:26.412Z,100183.16
2018-05-16T17:09:53.906Z,100189.47
2018-05-16T17:12:21.413Z,100194.09
2018-05-16T17:14:48.944Z,100202.46
2018-05-16T17:17:17.118Z,100212.63
2018-05-16T17:19:44.657Z,100209.84
2018-05-16T17:22:12.169Z,100220.33
2018-05-16T17:24:39.655Z,100212.89
2018-05-16T17:27:07.165Z,100216.63
2018-05-16T17:29:34.653Z,100212.88
2018-05-16T17:32:02.574Z,100217.84
2018-05-16T17:34:30.081Z,100222.70
2018-05-16T17:36:57.563Z,100226.36
2018-05-16T17:39:25.081Z,100235.47
2018-05-16T17:41:52.598Z,100238.48
2018-05-16T17:44:20.333Z,100231.16
2018-05-16T17:46:47.853Z,100231.03
2018-05-16T17:49:15.341Z,100233.13
2018-05-16T17:51:42.864Z,100235.78
2018-05-16T17:54:10.360Z,100232.30
2018-05-16T17:56:38.001Z,100235.28
2018-05-16T17:59:05.497Z,100240.14
2018-05-16T18:01:32.987Z,100243.20
2018-05-16T18:04:00.490Z,100240.30
2018-05-16T18:06:28.714Z,100239.92
2018-05-16T18:08:56.367Z,100246.83
2018-05-16T18:11:23.870Z,100240.58
2018-05-16T18:14:03.488Z,100241.16
2018-05-16T18:16:42.723Z,100240.14
2018-05-16T18:19:10.273Z,100235.01
2018-05-16T18:21:37.790Z,100232.92
2018-05-16T18:24:05.293Z,100234.27
2018-05-16T18:26:33.741Z,100233.58
2018-05-16T18:29:01.233Z,100234.72
2018-05-16T18:31:28.857Z,100230.02
2018-05-16T18:33:56.360Z,100228.77
2018-05-16T18:36:23.939Z,100230.22
2018-05-16T18:38:52.232Z,100223.37
2018-05-16T18:41:19.913Z,100227.42
2018-05-16T18:43:47.587Z,100226.06
2018-05-16T18:46:15.162Z,100226.80
2018-05-16T18:48:42.831Z,100236.38
2018-05-16T18:51:10.435Z,100233.58
2018-05-16T18:53:38.386Z,100237.27
2018-05-16T18:56:07.639Z,100233.63
2018-05-16T18:58:35.487Z,100241.37
2018-05-16T19:01:03.369Z,100237.91
2018-05-16T19:03:31.213Z,100240.27
2018-05-16T19:05:58.743Z,100242.45
2018-05-16T19:08:27.346Z,100248.13
2018-05-16T19:10:54.879Z,100249.09
2018-05-16T19:13:22.655Z,100261.08
2018-05-16T19:15:50.522Z,100260.80
2018-05-16T19:18:19.311Z,100266.56
2018-05-16T19:20:47.173Z,100271.80
2018-05-16T19:23:15.099Z,100274.75
2018-05-16T19:25:42.977Z,100280.31
2018-05-16T19:28:10.562Z,100281.79
2018-05-16T19:30:38.524Z,100289.02
2018-05-16T19:33:06.585Z,100295.24
2018-05-16T19:35:34.142Z,100292.78
2018-05-16T19:38:01.661Z,100301.77
2018-05-16T19:40:29.553Z,100304.77
2018-05-16T19:42:57.105Z,100308.52
2018-05-16T19:45:24.789Z,100306.75
2018-05-16T19:47:52.561Z,100308.95
2018-05-16T19:50:20.104Z,100324.20
2018-05-16T19:52:48.117Z,100322.77
2018-05-16T19:55:15.711Z,100325.02
2018-05-16T19:57:43.558Z,100324.48
2018-05-16T20:00:12.336Z,100328.46
2018-05-16T20:02:40.425Z,100330.41
2018-05-16T20:05:08.439Z,100324.25
2018-05-16T20:07:36.308Z,100330.44
2018-05-16T20:10:04.120Z,100327.05
2018-05-16T20:12:31.674Z,100336.71
2018-05-16T20:14:59.324Z,100329.73
2018-05-16T20:17:27.247Z,100339.72
2018-05-16T20:19:54.837Z,100343.64
2018-05-16T20:22:22.547Z,100339.76
2018-05-16T20:24:50.121Z,100347.30
2018-05-16T20:27:18.006Z,100351.95
2018-05-16T20:29:45.576Z,100349.59
2018-05-16T20:32:13.093Z,100353.11
2018-05-16T20:34:40.616Z,100359.88
2018-05-16T20:37:08.110Z,100356.98
2018-05-16T20:39:35.655Z,100364.45
2018-05-16T20:42:03.166Z,100363.84
2018-05-16T20:44:30.656Z,100373.50
2018-05-16T20:46:58.379Z,100371.77
2018-05-16T20:49:25.878Z,100370.59
2018-05-16T20:51:53.412Z,100372.67
2018-05-16T20:54:20.936Z,100363.77
2018-05-16T20:56:48.451Z,100364.14
2018-05-16T20:59:16.409Z,100372.89
2018-05-16T21:01:43.898Z,100361.83
2018-05-16T21:04:11.429Z,100376.95
2018-05-16T21:06:38.943Z,100368.45
2018-05-16T21:09:06.432Z,100366.97
2018-05-16T21:11:34.069Z,100362.31
2018-05-16T21:14:01.577Z,100357.97
2018-05-16T21:16:29.062Z,100368.59
2018-05-16T21:18:56.612Z,100370.63
2018-05-16T21:21:24.093Z,100374.23
2018-05-16T21:23:51.725Z,100377.44
2018-05-16T21:26:19.209Z,100370.84
2018-05-16T21:28:46.768Z,100372.00
2018-05-16T21:31:14.248Z,100374.94
2018-05-16T21:33:41.749Z,100375.06
2018-05-16T21:36:09.505Z,100374.55
2018-05-16T21:38:36.988Z,100369.91
2018-05-16T21:41:04.486Z,100369.33
2018-05-16T21:43:32.001Z,100368.43
2018-05-16T21:45:59.485Z,100375.52
2018-05-16T21:48:27.237Z,100379.36
2018-05-16T21:50:54.733Z,100382.06
2018-05-16T21:53:22.213Z,100384.77
2018-05-16T21:55:49.731Z,100384.98
2018-05-16T21:58:17.252Z,100396.33
2018-05-16T22:00:44.900Z,100397.43
2018-05-16T22:03:12.385Z,100402.90
2018-05-16T22:05:39.869Z,100401.47
2018-05-16T22:08:07.373Z,100398.91
2018-05-16T22:10:34.910Z,100399.52
2018-05-16T22:13:02.400Z,100398.25
2018-05-16T22:15:29.893Z,100391.86
2018-05-16T22:17:57.368Z,100390.44
2018-05-16T22:20:24.874Z,100394.39
2018-05-16T22:22:52.381Z,100398.34
2018-05-16T22:25:19.861Z,100403.78
2018-05-16T22:27:47.391Z,100406.52
2018-05-16T22:30:14.327Z,100405.59
2018-05-16T22:32:47.579Z,100405.33
2018-05-16T22:35:20.641Z,100402.58
2018-05-16T22:37:53.881Z,100409.97
2018-05-16T22:40:26.918Z,100413.22
2018-05-16T22:42:53.888Z,100413.31
2018-05-16T22:45:32.129Z,100406.86
2018-05-16T22:47:59.686Z,100406.80
2018-05-16T22:50:27.184Z,100401.58
2018-05-16T22:52:54.967Z,100396.67
2018-05-16T22:55:22.469Z,100393.50
2018-05-16T22:57:49.980Z,100398.41
2018-05-16T23:00:20.953Z,100403.33
2018-05-16T23:02:48.517Z,100399.43
2018-05-16T23:05:16.147Z,100404.41
2018-05-16T23:07:43.680Z,100404.55
2018-05-16T23:10:11.220Z,100415.97
2018-05-16T23:12:38.929Z,100406.90
2018-05-16T23:15:06.802Z,100410.13
2018-05-16T23:17:34.344Z,100408.73
2018-05-16T23:20:01.941Z,100414.25
2018-05-16T23:22:29.613Z,100405.59
2018-05-16T23:24:57.503Z,100415.20
2018-05-16T23:27:25.000Z,100412.12
2018-05-16T23:29:52.673Z,100408.70
2018-05-16T23:32:20.379Z,100413.82
2018-05-16T23:34:47.989Z,100418.95
2018-05-16T23:37:15.748Z,100424.70
2018-05-16T23:39:43.463Z,100439.77
2018-05-16T23:42:11.088Z,100429.64
2018-05-16T23:44:38.642Z,100406.98
2018-05-16T23:47:06.355Z,100420.72
2018-05-16T23:49:34.153Z,100416.77
2018-05-16T23:52:01.717Z,100419.61
2018-05-16T23:54:29.231Z,100416.20
2018-05-16T23:56:56.744Z,100415.42
2018-05-16T23:59:24.248Z,100416.15
